Latest Weather Observations for Warwick

IDQ60801

Issued at 4:32 am EST Saturday 5 September 2015 (issued every 30 minutes, with the page automatically refreshed every 10 minutes)

About weather observations | Map of weather stations | Latest weather observations for QLD | Other Formats
Station Details ID: 041525 Name: WARWICK Lat: -28.21 Lon: 152.10 Height: 475.4 m
Data from the previous 72 hours. | See also: Recent months at Warwick
Date/Time
EST
Temp
°C
App
Temp
°C
Dew
Point
Rel
Hum
%
Delta-T
°C
Wind Press
QNH
hPa
Press
MSL
hPa
Rain
since 9 am
mm
Dir
 
Spd
km/h
Gust
km/h
Spd
kts
Gust
kts
05/04:30am 9.3 7.7 7.9 91 0.7 NNE 6 9 3 5 1020.9 1020.0 0.0
05/04:00am 8.6 6.4 7.8 95 0.4 NE 9 11 5 6 1020.7 1019.8 0.0
05/03:30am 8.6 8.1 8.0 96 0.3 CALM 0 0 0 0 1020.5 1019.6 0.0
05/03:00am 10.0 8.6 8.8 92 0.6 NE 6 9 3 5 1020.5 1019.6 0.0
05/02:30am 10.5 9.9 9.1 91 0.7 NE 2 9 1 5 1020.6 1019.7 0.0
05/02:00am 10.6 9.2 9.0 90 0.8 NE 6 7 3 4 1020.8 1019.9 0.0
05/01:30am 10.9 10.7 9.1 89 0.9 CALM 0 6 0 3 1020.9 1020.0 0.0
05/01:00am 11.5 11.3 9.0 85 1.3 CALM 0 7 0 4 1021.0 1020.1 0.0
05/12:30am 10.8 10.2 8.8 87 1.0 NE 2 7 1 4 1021.0 1020.1 0.0
05/12:00am 11.7 11.2 9.4 86 1.2 SE 2 6 1 3 1021.1 1020.2 0.0
 
Date/Time
EST
Temp
°C
App
Temp
°C
Dew
Point
Rel
Hum
%
Delta-T
°C
Wind Press
QNH
hPa
Press
MSL
hPa
Rain
since 9 am
mm
Dir
 
Spd
km/h
Gust
km/h
Spd
kts
Gust
kts
04/11:30pm 11.8 11.5 8.6 81 1.6 CALM 0 6 0 3 1021.1 1020.2 0.0
04/11:00pm 11.9 11.5 8.1 77 1.9 CALM 0 0 0 0 1021.3 1020.5 0.0
04/10:30pm 12.0 10.4 8.2 77 1.9 E 6 11 3 6 1021.4 1020.6 0.0
04/10:00pm 11.2 9.6 7.8 79 1.7 SE 6 13 3 7 1021.5 1020.7 0.0
04/09:30pm 10.6 8.3 7.3 80 1.6 NE 9 13 5 7 1021.2 1020.4 0.0
04/09:00pm 10.2 9.2 7.5 83 1.3 E 2 7 1 4 1021.1 1020.2 0.0
04/08:30pm 10.9 9.5 7.2 78 1.8 E 4 7 2 4 1021.1 1020.2 0.0
04/08:00pm 11.6 9.2 7.1 74 2.2 ENE 9 11 5 6 1020.7 1019.8 0.0
04/07:30pm 10.8 8.1 7.3 79 1.7 NE 11 13 6 7 1020.5 1019.6 0.0
04/07:00pm 11.9 10.0 7.5 74 2.2 ENE 7 11 4 6 1020.2 1019.3 0.0
04/06:30pm 12.8 11.2 8.0 72 2.4 ENE 6 9 3 5 1019.8 1018.9 0.0
04/06:00pm 14.9 14.4 9.4 69 2.9 SE 2 7 1 4 1019.5 1018.6 0.0
04/05:30pm 17.2 14.6 7.9 54 4.8 SE 11 19 6 10 1019.1 1018.2 0.0
04/05:00pm 18.3 16.4 7.7 50 5.5 ESE 7 13 4 7 1018.7 1017.8 0.0
04/04:30pm 18.8 15.6 6.9 46 6.1 SE 13 26 7 14 1018.4 1017.5 0.0
04/04:00pm 18.8 15.6 6.7 45 6.2 SE 13 24 7 13 1018.2 1017.3 0.0
04/03:30pm 19.6 16.0 6.8 43 6.6 SE 15 24 8 13 1018.0 1017.1 0.0
04/03:00pm 20.1 16.9 6.7 41 6.9 SE 13 24 7 13 1018.0 1017.1 0.0
04/02:30pm 20.4 17.2 6.9 41 7.0 ESE 13 26 7 14 1017.9 1017.0 0.0
04/02:00pm 20.1 16.5 6.7 41 6.9 ESE 15 26 8 14 1018.0 1017.1 0.0
04/01:30pm 20.1 15.4 6.2 40 7.1 SSE 20 35 11 19 1018.1 1017.2 0.0
04/01:00pm 20.4 16.5 6.9 41 7.0 SE 17 30 9 16 1018.2 1017.3 0.0
04/12:30pm 19.9 14.8 6.2 41 7.0 SSE 22 35 12 19 1018.3 1017.4 0.0
04/12:00pm 20.5 15.9 6.5 40 7.2 SE 20 37 11 20 1018.5 1017.6 0.0
04/11:30am 18.9 13.5 6.3 43 6.4 SSE 24 37 13 20 1018.6 1017.7 0.0
04/11:00am 18.3 14.1 5.7 43 6.3 SE 17 30 9 16 1018.9 1018.0 0.0
04/10:30am 17.3 13.9 6.1 47 5.6 SE 13 22 7 12 1019.6 1018.7 0.0
04/10:00am 16.7 14.0 5.8 48 5.4 SSE 9 20 5 11 1019.9 1019.0 0.0
04/09:30am 14.9 14.0 6.2 56 4.3 CALM 0 0 0 0 1019.7 1018.8 0.0
04/09:00am 13.8 12.9 6.0 59 3.8 CALM 0 0 0 0 1019.5 1018.6 0.0
04/08:30am 12.7 11.8 6.1 64 3.2 CALM 0 4 0 2 1019.1 1018.2 0.0
04/08:00am 11.0 10.2 6.7 75 2.1 CALM 0 0 0 0 1018.8 1017.9 0.0
04/07:30am 9.0 8.2 6.7 85 1.1 CALM 0 0 0 0 1018.4 1017.5 0.0
04/07:00am 7.6 6.7 6.1 90 0.7 CALM 0 0 0 0 1017.9 1017.0 0.0
04/06:30am 4.1 2.6 3.1 93 0.4 CALM 0 0 0 0 1017.5 1016.5 0.0
04/06:00am 6.0 4.1 4.9 93 0.5 W 4 9 2 5 1017.0 1016.1 0.0
04/05:30am 5.9 4.4 5.0 94 0.4 WNW 2 7 1 4 1017.0 1016.1 0.0
04/05:00am 7.9 5.3 6.2 89 0.8 WNW 9 9 5 5 1016.8 1015.9 0.0
04/04:30am 7.6 6.2 5.4 86 1.0 NW 2 7 1 4 1016.7 1015.8 0.0
04/04:00am 8.7 6.0 5.7 81 1.4 W 9 13 5 7 1016.3 1015.4 0.0
04/03:30am 8.5 5.8 5.5 81 1.4 W 9 13 5 7 1016.1 1015.2 0.0
04/03:00am 9.0 6.8 5.3 77 1.7 W 6 11 3 6 1016.2 1015.3 0.0
04/02:30am 9.3 7.0 5.7 78 1.7 W 7 11 4 6 1016.3 1015.4 0.0
04/02:00am 9.5 7.3 5.4 75 1.9 W 6 11 3 6 1016.6 1015.7 0.0
04/01:30am 9.2 6.5 5.8 79 1.6 W 9 13 5 7 1016.6 1015.7 0.0
04/01:00am 10.1 6.6 5.6 73 2.1 WSW 13 17 7 9 1016.7 1015.8 0.0
04/12:30am 10.8 6.9 5.5 70 2.5 WSW 15 24 8 13 1016.6 1015.7 0.0
04/12:00am 10.2 7.9 5.8 74 2.1 W 7 13 4 7 1016.6 1015.7 0.0
 
Date/Time
EST
Temp
°C
App
Temp
°C
Dew
Point
Rel
Hum
%
Delta-T
°C
Wind Press
QNH
hPa
Press
MSL
hPa
Rain
since 9 am
mm
Dir
 
Spd
km/h
Gust
km/h
Spd
kts
Gust
kts
03/11:30pm 11.0 7.5 5.3 68 2.7 W 13 20 7 11 1016.5 1015.6 0.0
03/11:00pm 10.8 7.3 5.5 70 2.5 WSW 13 19 7 10 1016.6 1015.7 0.0
03/10:30pm 11.3 8.3 5.9 69 2.6 W 11 17 6 9 1016.6 1015.7 0.0
03/10:00pm 11.9 8.8 5.6 65 3.0 W 11 17 6 9 1016.6 1015.7 0.0
03/09:30pm 11.4 8.3 5.7 68 2.7 W 11 20 6 11 1016.3 1015.4 0.0
03/09:00pm 11.4 7.9 5.5 67 2.8 WSW 13 19 7 10 1016.0 1015.1 0.0
03/08:30pm 11.6 7.4 5.5 66 2.9 W 17 32 9 17 1015.6 1014.6 0.0
03/08:00pm 11.3 8.2 5.4 67 2.8 W 11 20 6 11 1015.5 1014.5 0.0
03/07:30pm 11.8 7.6 5.5 65 3.0 WSW 17 24 9 13 1014.9 1014.0 0.0
03/07:00pm 11.7 7.5 5.9 67 2.8 WSW 17 26 9 14 1014.8 1013.9 0.0
03/06:30pm 12.0 7.9 6.0 66 2.9 WSW 17 26 9 14 1014.4 1013.5 0.0
03/06:00pm 12.5 6.7 6.3 66 3.0 WSW 26 39 14 21 1014.0 1013.1 0.0
03/05:37pm 13.5 6.3 5.9 60 3.7 WSW 33 56 18 30 1013.1 1012.1 0.0
03/05:30pm 14.2 7.3 4.8 53 4.5 WSW 30 44 16 24 1012.9 1011.9 0.0
03/05:00pm 15.0 10.2 4.8 50 4.9 WSW 19 28 10 15 1011.9 1010.9 0.0
03/04:30pm 14.7 9.3 6.4 57 4.1 WSW 24 43 13 23 1011.7 1010.7 0.0
03/04:19pm 14.9 7.9 6.0 55 4.4 WSW 32 74 17 40 1011.4 1010.4 0.0
03/04:07pm 16.3 9.6 3.7 43 6.0 WNW 28 46 15 25 1011.1 1010.1 0.0
03/04:00pm 16.1 9.8 3.7 43 5.9 WNW 26 43 14 23 1011.1 1010.1 0.0
03/03:30pm 17.8 11.0 3.0 37 7.0 W 28 46 15 25 1010.7 1009.7 0.0
03/03:00pm 18.8 10.7 0.9 30 8.2 W 33 54 18 29 1010.2 1009.3 0.0
03/02:30pm 18.3 11.4 2.3 34 7.5 WSW 28 48 15 26 1010.0 1009.0 0.0
03/02:05pm 20.1 12.8 2.5 31 8.4 W 30 46 16 25 1010.1 1009.1 0.0
03/02:00pm 19.7 11.8 0.8 28 8.7 W 32 46 17 25 1010.0 1009.0 0.0
03/01:30pm 19.1 11.5 0.4 28 8.5 WNW 30 48 16 26 1009.9 1008.9 0.0
03/01:19pm 19.1 11.9 0.4 28 8.5 W 28 56 15 30 1009.9 1008.9 0.0
03/01:00pm 19.4 12.7 1.3 30 8.4 W 26 44 14 24 1010.1 1009.1 0.0
03/12:30pm 19.4 13.1 1.6 30 8.3 W 24 37 13 20 1010.4 1009.5 0.0
03/12:00pm 18.0 12.2 2.4 35 7.3 W 22 35 12 19 1011.1 1010.1 0.0
03/11:31am 17.7 10.6 1.3 33 7.5 W 28 46 15 25 1012.1 1011.2 0.0
03/11:30am 17.7 10.9 1.0 32 7.6 W 26 46 14 25 1012.2 1011.3 0.0
03/11:23am 17.9 10.7 1.0 32 7.7 W 28 46 15 25 1012.4 1011.5 0.0
03/11:00am 17.2 10.5 1.4 34 7.2 W 26 41 14 22 1012.9 1011.9 0.0
03/10:30am 17.4 10.4 1.8 35 7.2 WSW 28 50 15 27 1013.0 1012.0 0.0
03/10:00am 16.8 11.2 3.5 41 6.3 W 22 37 12 20 1012.9 1011.9 0.0
03/09:30am 15.4 10.6 5.4 51 4.9 W 20 32 11 17 1012.9 1011.9 0.0
03/09:00am 15.2 9.7 5.9 54 4.6 W 24 39 13 21 1012.8 1011.8 3.0
03/08:30am 15.1 10.7 9.0 67 3.2 W 22 35 12 19 1012.4 1011.5 3.0
03/08:00am 15.6 12.1 11.0 74 2.5 W 20 37 11 20 1012.1 1011.2 3.0
03/07:34am 15.7 11.2 12.5 81 1.8 WNW 28 46 15 25 1011.6 1010.6 3.0
03/07:30am 15.9 11.2 13.1 83 1.6 WNW 30 48 16 26 1011.5 1010.5 3.0
03/07:24am 16.3 12.6 13.9 86 1.4 NW 26 48 14 26 1011.4 1010.4 3.0
03/07:00am 16.1 14.7 14.4 90 1.0 NW 15 26 8 14 1011.0 1010.0 3.0
03/06:30am 15.7 13.8 14.3 91 0.8 NW 17 26 9 14 1011.2 1010.2 3.0
03/06:00am 15.9 13.3 13.8 87 1.2 N 20 32 11 17 1010.8 1009.8 1.6
03/05:30am 16.0 13.5 13.6 86 1.4 N 19 32 10 17 1010.4 1009.5 1.2
03/05:00am 15.6 13.3 13.1 85 1.4 NNW 17 30 9 16 1010.8 1009.8 1.2
03/04:30am 15.8 13.9 13.0 83 1.6 NNW 15 28 8 15 1010.2 1009.3 1.2
03/04:00am 16.4 12.8 13.1 81 1.9 N 24 35 13 19 1010.0 1009.0 0.6
03/03:30am 16.3 12.0 12.2 77 2.3 N 26 33 14 18 1009.6 1008.6 0.0
03/03:00am 16.2 13.2 11.9 75 2.4 N 19 30 10 16 1011.0 1010.0 0.0
03/02:30am 15.5 12.3 11.3 76 2.3 NNE 19 30 10 16 1011.2 1010.2 0.0
03/02:00am 15.8 13.2 10.7 71 2.8 N 15 20 8 11 1012.3 1011.4 0.0
03/01:30am 14.0 12.9 9.8 76 2.2 NNE 6 17 3 9 1012.5 1011.6 0.0
03/01:00am 13.1 11.8 9.3 78 2.0 WNW 6 9 3 5 1013.2 1012.2 0.0
03/12:30am 12.9 12.2 9.9 82 1.6 WNW 4 7 2 4 1013.7 1012.7 0.0
03/12:00am 13.7 11.1 9.3 75 2.3 NNE 13 20 7 11 1013.7 1012.7 0.0
 
Date/Time
EST
Temp
°C
App
Temp
°C
Dew
Point
Rel
Hum
%
Delta-T
°C
Wind Press
QNH
hPa
Press
MSL
hPa
Rain
since 9 am
mm
Dir
 
Spd
km/h
Gust
km/h
Spd
kts
Gust
kts
02/11:30pm 13.7 11.8 8.9 73 2.5 NNW 9 15 5 8 1015.2 1014.2 0.0
02/11:00pm 15.9 12.3 5.2 49 5.2 WNW 13 20 7 11 1015.9 1015.0 0.0
02/10:30pm 15.3 12.6 5.5 52 4.8 W 9 15 5 8 1015.3 1014.3 0.0
02/10:00pm 14.4 12.1 5.8 56 4.2 W 7 9 4 5 1014.6 1013.7 0.0
02/09:30pm 16.3 13.2 5.5 48 5.3 NE 11 17 6 9 1014.6 1013.7 0.0
02/09:00pm 16.6 11.8 4.9 46 5.7 NE 19 22 10 12 1014.5 1013.6 0.0
02/08:30pm 16.2 11.3 4.1 44 5.8 NE 19 22 10 12 1014.4 1013.5 0.0
02/08:00pm 16.9 11.6 2.8 39 6.6 NNE 20 28 11 15 1014.6 1013.7 0.0
02/07:30pm 16.7 11.1 3.7 42 6.2 NE 22 28 12 15 1014.1 1013.2 0.0
02/07:00pm 17.3 11.7 3.4 39 6.6 NNE 22 26 12 14 1014.3 1013.4 0.0
02/06:30pm 17.4 12.4 3.6 40 6.6 NNE 19 24 10 13 1014.3 1013.4 0.0
02/06:00pm 17.8 12.9 3.9 39 6.7 NNE 19 24 10 13 1014.1 1013.2 0.0
02/05:30pm 20.4 15.6 2.7 31 8.5 N 17 24 9 13 1014.3 1013.4 0.0
02/05:00pm 21.2 16.8 2.8 29 8.9 NNE 15 19 8 10 1014.1 1013.2 0.0
02/04:30pm 22.4 18.4 3.0 28 9.5 NW 13 20 7 11 1014.0 1013.1 0.0
02/04:00pm 22.7 19.0 2.5 26 9.8 NW 11 17 6 9 1014.0 1013.1 0.0
02/03:30pm 23.5 20.6 2.7 25 10.2 WNW 7 15 4 8 1013.7 1012.7 0.0
02/03:00pm 22.5 17.5 1.1 24 10.1 WNW 17 28 9 15 1014.4 1013.5 0.0
02/02:30pm 23.2 19.4 1.8 24 10.3 N 11 24 6 13 1014.6 1013.7 0.0
02/02:00pm 22.7 18.7 2.9 27 9.7 NW 13 20 7 11 1015.1 1014.1 0.0
02/01:30pm 21.9 17.9 2.7 28 9.3 NNW 13 20 7 11 1015.7 1014.8 0.0
02/01:00pm 21.6 18.3 2.5 28 9.2 W 9 19 5 10 1016.3 1015.4 0.0
02/12:30pm 20.8 16.2 1.4 27 9.1 WNW 15 22 8 12 1017.1 1016.2 0.0
02/12:00pm 21.3 17.6 -0.2 24 9.8 NW 9 19 5 10 1017.4 1016.4 0.0
02/11:30am 19.9 16.6 2.7 32 8.2 SW 9 17 5 9 1018.2 1017.3 0.0
02/11:00am 18.0 15.3 2.4 35 7.3 S 6 13 3 7 1018.7 1017.8 0.0
02/10:30am 15.6 14.4 4.8 48 5.2 CALM 0 6 0 3 1019.2 1018.3 0.0
02/10:00am 11.6 10.2 3.7 58 3.6 CALM 0 0 0 0 1019.7 1018.8 0.0
02/09:30am 10.1 8.7 3.4 63 3.0 CALM 0 0 0 0 1019.8 1018.9 0.0
02/09:00am 8.2 6.7 2.9 69 2.3 CALM 0 0 0 0 1019.9 1019.0 0.0
02/08:30am 7.0 5.3 2.0 70 2.1 CALM 0 0 0 0 1019.9 1019.0 0.0
02/08:00am 6.0 4.4 2.4 78 1.5 CALM 0 0 0 0 1019.6 1018.7 0.0
02/07:30am 4.3 2.7 2.4 87 0.8 CALM 0 0 0 0 1019.1 1018.2 0.0
02/07:00am 3.2 1.4 1.2 87 0.8 CALM 0 0 0 0 1019.0 1018.1 0.0
02/06:30am 2.8 1.0 1.0 88 0.7 CALM 0 0 0 0 1018.7 1017.8 0.0
02/06:00am 1.9 0.0 0.6 91 0.5 CALM 0 0 0 0 1018.6 1017.7 0.0
02/05:30am 1.4 -0.7 -0.5 87 0.7 CALM 0 0 0 0 1018.3 1017.4 0.0
02/05:00am 0.7 - - - - CALM 0 0 0 0 1018.1 1017.2 0.0

Other Formats:

Comma delimited format used in spreadsheet applications
http://www.bom.gov.au/fwo/IDQ60801/IDQ60801.94555.axf

JavaScript Object Notation format (JSON) in row-major order
http://www.bom.gov.au/fwo/IDQ60801/IDQ60801.94555.json